createdAt,value
2022-10-16T00:01:44.190Z,98220.38
2022-10-16T00:04:11.481Z,98228.00
2022-10-16T00:06:39.045Z,98236.63
2022-10-16T00:09:07.568Z,98232.06
2022-10-16T00:11:39.165Z,98228.19
2022-10-16T00:14:14.543Z,98232.63
2022-10-16T00:16:42.982Z,98230.63
2022-10-16T00:19:13.107Z,98231.72
2022-10-16T00:21:40.909Z,98231.38
2022-10-16T00:24:10.681Z,98231.38
2022-10-16T00:26:40.026Z,98232.75
2022-10-16T00:29:08.716Z,98225.84
2022-10-16T00:31:36.920Z,98233.72
2022-10-16T00:34:04.818Z,98238.63
2022-10-16T00:36:33.110Z,98235.72
2022-10-16T00:39:02.272Z,98239.88
2022-10-16T00:41:31.427Z,98230.66
2022-10-16T00:44:43.863Z,98237.72
2022-10-16T00:47:18.839Z,98239.50
2022-10-16T00:49:48.819Z,98243.66
2022-10-16T00:52:16.358Z,98231.22
2022-10-16T00:54:44.176Z,98242.31
2022-10-16T00:57:11.772Z,98234.34
2022-10-16T00:59:43.395Z,98233.66
2022-10-16T01:02:15.420Z,98236.81
2022-10-16T01:04:55.006Z,98237.06
2022-10-16T01:07:59.575Z,98237.50
2022-10-16T01:10:46.239Z,98235.59
2022-10-16T01:13:42.106Z,98249.44
2022-10-16T01:16:26.082Z,98245.00
2022-10-16T01:19:10.469Z,98247.50
2022-10-16T01:21:44.629Z,98244.75
2022-10-16T01:24:30.529Z,98242.78
2022-10-16T01:27:22.158Z,98244.94
2022-10-16T01:30:17.193Z,98245.97
2022-10-16T01:32:58.057Z,98241.56
2022-10-16T01:35:33.307Z,98238.34
2022-10-16T01:38:14.389Z,98240.13
2022-10-16T01:40:51.662Z,98238.84
2022-10-16T01:43:26.449Z,98241.53
2022-10-16T01:45:55.290Z,98241.56
2022-10-16T01:48:24.968Z,98247.28
2022-10-16T01:51:09.696Z,98255.53
2022-10-16T01:53:38.559Z,98249.91
2022-10-16T01:56:13.077Z,98252.34
2022-10-16T01:58:50.885Z,98245.56
2022-10-16T02:01:24.015Z,98251.38
2022-10-16T02:03:57.469Z,98262.84
2022-10-16T02:06:26.080Z,98268.59
2022-10-16T02:08:54.650Z,98255.09
2022-10-16T02:11:22.100Z,98265.00
2022-10-16T02:14:05.949Z,98279.59
2022-10-16T02:16:41.804Z,98268.81
2022-10-16T02:19:09.846Z,98280.66
2022-10-16T02:22:05.562Z,98276.75
2022-10-16T02:25:08.307Z,98280.91
2022-10-16T02:27:53.265Z,98280.56
2022-10-16T02:30:43.326Z,98274.97
2022-10-16T02:33:16.736Z,98277.97
2022-10-16T02:35:47.396Z,98279.41
2022-10-16T02:38:18.438Z,98277.38
2022-10-16T02:40:46.246Z,98272.13
2022-10-16T02:43:14.501Z,98274.53
2022-10-16T02:45:42.016Z,98261.75
2022-10-16T02:48:09.506Z,98267.00
2022-10-16T02:50:36.918Z,98277.38
2022-10-16T02:53:04.402Z,98268.66
2022-10-16T02:55:31.647Z,98270.47
2022-10-16T02:57:59.054Z,98272.25
2022-10-16T03:00:26.165Z,98270.59
2022-10-16T03:02:53.597Z,98282.16
2022-10-16T03:07:53.758Z,98281.56
2022-10-16T03:10:21.138Z,98291.47
2022-10-16T03:12:48.514Z,98290.88
2022-10-16T03:15:15.724Z,98289.91
2022-10-16T03:17:43.056Z,98289.91
2022-10-16T03:20:11.160Z,98298.25
2022-10-16T03:22:38.502Z,98299.47
2022-10-16T03:25:06.351Z,98300.88
2022-10-16T03:27:33.652Z,98298.03
2022-10-16T03:30:00.802Z,98291.38
2022-10-16T03:32:29.655Z,98286.84
2022-10-16T03:34:58.003Z,98292.06
2022-10-16T03:37:26.049Z,98302.44
2022-10-16T03:39:53.481Z,98303.91
2022-10-16T03:42:20.824Z,98298.28
2022-10-16T03:44:48.106Z,98310.31
2022-10-16T03:47:15.457Z,98310.94
2022-10-16T03:49:42.624Z,98304.00
2022-10-16T03:52:10.002Z,98314.50
2022-10-16T03:54:37.233Z,98307.56
2022-10-16T03:57:04.599Z,98308.31
2022-10-16T03:59:31.816Z,98302.94
2022-10-16T04:01:59.237Z,98311.88
2022-10-16T04:04:26.488Z,98302.56
2022-10-16T04:06:53.894Z,98313.19
2022-10-16T04:09:21.035Z,98310.81
2022-10-16T04:11:48.458Z,98301.84
2022-10-16T04:14:15.812Z,98311.88
2022-10-16T04:16:43.193Z,98314.25
2022-10-16T04:19:12.170Z,98302.06
2022-10-16T04:21:39.653Z,98314.59
2022-10-16T04:24:06.942Z,98323.69
2022-10-16T04:26:34.429Z,98318.19
2022-10-16T04:29:01.696Z,98319.00
2022-10-16T04:31:29.369Z,98315.56
2022-10-16T04:33:56.659Z,98301.47
2022-10-16T04:36:26.804Z,98305.31
2022-10-16T04:38:56.379Z,98306.97
2022-10-16T04:41:23.793Z,98314.97
2022-10-16T04:43:50.979Z,98308.63
2022-10-16T04:46:18.367Z,98308.63
2022-10-16T04:48:45.506Z,98315.94
2022-10-16T04:51:12.915Z,98315.19
2022-10-16T04:53:40.073Z,98327.50
2022-10-16T04:56:07.475Z,98316.88
2022-10-16T04:58:34.676Z,98327.88
2022-10-16T05:01:02.066Z,98331.78
2022-10-16T05:03:32.224Z,98331.78
2022-10-16T05:05:59.596Z,98339.19
2022-10-16T05:08:26.798Z,98337.91
2022-10-16T05:10:54.172Z,98335.97
2022-10-16T05:13:21.468Z,98324.28
2022-10-16T05:15:49.887Z,98339.78
2022-10-16T05:18:17.837Z,98343.97
2022-10-16T05:20:45.285Z,98351.94
2022-10-16T05:25:41.034Z,98353.75
2022-10-16T05:28:08.230Z,98355.19
2022-10-16T05:30:37.879Z,98354.34
2022-10-16T05:33:05.411Z,98355.53
2022-10-16T05:35:32.983Z,98356.00
2022-10-16T05:38:00.183Z,98358.63
2022-10-16T05:40:27.542Z,98366.16
2022-10-16T05:42:57.177Z,98367.25
2022-10-16T05:45:24.832Z,98368.53
2022-10-16T05:47:52.389Z,98375.91
2022-10-16T05:50:19.743Z,98375.31
2022-10-16T05:52:46.954Z,98380.91
2022-10-16T05:55:14.386Z,98381.25
2022-10-16T05:57:41.600Z,98385.75
2022-10-16T06:00:09.993Z,98384.78
2022-10-16T06:02:37.206Z,98385.94
2022-10-16T06:05:04.960Z,98392.63
2022-10-16T06:07:36.782Z,98396.91
2022-10-16T06:10:05.938Z,98406.44
2022-10-16T06:12:33.133Z,98415.69
2022-10-16T06:15:00.434Z,98406.06
2022-10-16T06:17:27.899Z,98415.75
2022-10-16T06:19:55.464Z,98409.56
2022-10-16T06:22:22.656Z,98416.00
2022-10-16T06:24:50.919Z,98413.84
2022-10-16T06:27:18.145Z,98420.44
2022-10-16T06:29:46.297Z,98428.41
2022-10-16T06:32:13.702Z,98433.56
2022-10-16T06:34:44.127Z,98442.28
2022-10-16T06:37:11.443Z,98437.47
2022-10-16T06:39:38.758Z,98442.78
2022-10-16T06:42:05.890Z,98447.84
2022-10-16T06:44:33.243Z,98450.06
2022-10-16T06:47:00.773Z,98454.94
2022-10-16T06:49:29.641Z,98454.69
2022-10-16T06:51:56.802Z,98446.63
2022-10-16T06:54:24.091Z,98444.91
2022-10-16T06:56:52.727Z,98438.09
2022-10-16T06:59:20.217Z,98450.72
2022-10-16T07:01:47.502Z,98456.69
2022-10-16T07:04:14.972Z,98462.94
2022-10-16T07:06:42.129Z,98457.06
2022-10-16T07:09:12.569Z,98457.28
2022-10-16T07:11:41.398Z,98461.69
2022-10-16T07:14:19.074Z,98460.81
2022-10-16T07:16:46.935Z,98468.00
2022-10-16T07:19:16.427Z,98470.16
2022-10-16T07:21:43.764Z,98472.41
2022-10-16T07:24:17.451Z,98463.13
2022-10-16T07:26:47.152Z,98470.06
2022-10-16T07:29:18.463Z,98471.97
2022-10-16T07:31:46.993Z,98470.91
2022-10-16T07:34:18.753Z,98470.78
2022-10-16T07:36:49.747Z,98474.88
2022-10-16T07:39:17.532Z,98477.19
2022-10-16T07:41:44.920Z,98476.28
2022-10-16T07:44:12.387Z,98470.38
2022-10-16T07:46:39.609Z,98473.69
2022-10-16T07:49:07.033Z,98487.47
2022-10-16T07:51:34.683Z,98489.81
2022-10-16T07:54:02.637Z,98495.97
2022-10-16T07:56:33.762Z,98478.75
2022-10-16T07:59:01.208Z,98500.50
2022-10-16T08:01:28.796Z,98486.53
2022-10-16T08:03:56.322Z,98498.41
2022-10-16T08:06:27.599Z,98509.38
2022-10-16T08:08:57.103Z,98492.88
2022-10-16T08:11:24.616Z,98505.75
2022-10-16T08:13:52.108Z,98501.47
2022-10-16T08:16:19.318Z,98501.19
2022-10-16T08:18:47.336Z,98495.47
2022-10-16T08:21:20.399Z,98499.75
2022-10-16T08:23:53.054Z,98497.59
2022-10-16T08:26:24.655Z,98503.88
2022-10-16T08:28:52.989Z,98495.94
2022-10-16T08:31:21.523Z,98501.19
2022-10-16T08:33:49.198Z,98516.22
2022-10-16T08:36:17.462Z,98509.25
2022-10-16T08:38:45.201Z,98528.38
2022-10-16T08:41:38.909Z,98525.50
2022-10-16T08:44:41.464Z,98526.66
2022-10-16T08:47:11.399Z,98535.78
2022-10-16T08:49:44.027Z,98529.53
2022-10-16T08:52:17.030Z,98528.41
2022-10-16T08:54:52.770Z,98529.66
2022-10-16T08:57:27.317Z,98544.78
2022-10-16T09:00:01.381Z,98539.44
2022-10-16T09:02:45.886Z,98527.28
2022-10-16T09:05:22.225Z,98531.41
2022-10-16T09:08:46.013Z,98526.78
2022-10-16T09:11:38.075Z,98521.78
2022-10-16T09:14:38.841Z,98518.47
2022-10-16T09:17:45.384Z,98521.34
2022-10-16T09:20:39.437Z,98531.19
2022-10-16T09:23:06.770Z,98540.03
2022-10-16T09:25:35.000Z,98544.72
2022-10-16T09:28:02.416Z,98554.25
2022-10-16T09:30:30.927Z,98551.28
2022-10-16T09:32:59.992Z,98552.56
2022-10-16T09:35:47.377Z,98562.63
2022-10-16T09:38:35.105Z,98563.00
2022-10-16T09:41:19.608Z,98552.63
2022-10-16T09:43:57.999Z,98566.44
2022-10-16T09:46:35.875Z,98561.25
2022-10-16T09:49:19.537Z,98559.72
2022-10-16T09:51:46.664Z,98561.50
2022-10-16T09:54:20.912Z,98564.84
2022-10-16T09:56:53.353Z,98554.66
2022-10-16T09:59:28.170Z,98570.00
2022-10-16T10:01:56.723Z,98563.25
2022-10-16T10:04:26.986Z,98560.19
2022-10-16T10:06:59.199Z,98561.56
2022-10-16T10:09:48.497Z,98559.41
2022-10-16T10:12:34.681Z,98553.09
2022-10-16T10:15:22.645Z,98561.91
2022-10-16T10:17:59.665Z,98554.91
2022-10-16T10:20:39.769Z,98573.13
2022-10-16T10:23:27.359Z,98558.59
2022-10-16T10:26:17.290Z,98564.53
2022-10-16T10:28:56.362Z,98559.03
2022-10-16T10:31:55.369Z,98565.09
2022-10-16T10:34:49.040Z,98588.22
2022-10-16T10:38:21.255Z,98565.69
2022-10-16T10:40:48.598Z,98575.66
2022-10-16T10:43:34.557Z,98565.69
2022-10-16T10:46:11.807Z,98557.00
2022-10-16T10:49:17.668Z,98563.34
2022-10-16T10:51:59.923Z,98564.03
2022-10-16T10:54:51.757Z,98550.47
2022-10-16T11:00:29.701Z,98547.94
2022-10-16T11:03:34.609Z,98535.03
2022-10-16T11:06:25.716Z,98544.78
2022-10-16T11:09:16.309Z,98541.03
2022-10-16T11:11:52.936Z,98539.56
2022-10-16T11:14:37.552Z,98535.84
2022-10-16T11:17:27.209Z,98545.31
2022-10-16T11:20:31.375Z,98545.25
2022-10-16T11:23:17.698Z,98550.06
2022-10-16T11:25:48.383Z,98553.13
2022-10-16T11:28:30.876Z,98543.22
2022-10-16T11:31:11.296Z,98551.19
2022-10-16T11:34:04.525Z,98545.53
2022-10-16T11:37:04.440Z,98541.72
2022-10-16T11:39:32.961Z,98554.03
2022-10-16T11:42:14.979Z,98551.84
2022-10-16T11:45:44.257Z,98547.19
2022-10-16T11:48:25.795Z,98555.00
2022-10-16T11:51:24.258Z,98555.44
2022-10-16T11:54:25.036Z,98566.38
2022-10-16T11:56:58.913Z,98551.53
2022-10-16T12:00:24.953Z,98559.97
2022-10-16T12:03:24.765Z,98557.22
2022-10-16T12:06:24.584Z,98559.88
2022-10-16T12:08:54.574Z,98570.97
2022-10-16T12:11:31.707Z,98571.50
2022-10-16T12:14:14.323Z,98578.94
2022-10-16T12:17:00.157Z,98578.91
2022-10-16T12:19:31.120Z,98586.97
2022-10-16T12:22:02.412Z,98595.28
2022-10-16T12:24:41.965Z,98596.88
2022-10-16T12:27:31.383Z,98588.97
2022-10-16T12:30:09.321Z,98580.16
2022-10-16T12:32:48.309Z,98590.94
2022-10-16T12:35:30.667Z,98593.19
2022-10-16T12:38:18.845Z,98587.25
2022-10-16T12:41:15.266Z,98586.50
2022-10-16T12:43:46.407Z,98586.19
2022-10-16T12:46:13.730Z,98580.91
2022-10-16T12:49:05.211Z,98586.94
2022-10-16T12:51:32.883Z,98582.13
2022-10-16T12:54:28.738Z,98587.31
2022-10-16T12:57:28.634Z,98584.69
2022-10-16T13:00:29.990Z,98584.38
2022-10-16T13:03:22.046Z,98596.56
2022-10-16T13:06:46.830Z,98595.38
2022-10-16T13:09:48.829Z,98586.78
2022-10-16T13:12:45.865Z,98589.53
2022-10-16T13:15:22.544Z,98590.50
2022-10-16T13:18:20.608Z,98589.81
2022-10-16T13:21:04.174Z,98588.78
2022-10-16T13:23:53.128Z,98594.41
2022-10-16T13:27:09.088Z,98596.63
2022-10-16T13:29:36.794Z,98600.03
2022-10-16T13:32:13.822Z,98592.88
2022-10-16T13:34:49.784Z,98599.56
2022-10-16T13:37:22.042Z,98589.06
2022-10-16T13:39:51.602Z,98596.44
2022-10-16T13:42:28.905Z,98597.19
2022-10-16T13:44:57.661Z,98597.63
2022-10-16T13:47:31.030Z,98587.66
2022-10-16T13:50:20.991Z,98594.03
2022-10-16T13:52:48.489Z,98598.59
2022-10-16T13:55:18.749Z,98584.06
2022-10-16T13:57:46.498Z,98592.25
2022-10-16T14:00:33.302Z,98581.84
2022-10-16T14:03:07.921Z,98573.50
2022-10-16T14:05:36.029Z,98586.88
2022-10-16T14:08:03.643Z,98586.88
2022-10-16T14:10:34.565Z,98600.47
2022-10-16T14:13:05.432Z,98598.72
2022-10-16T14:15:36.604Z,98605.03
2022-10-16T14:18:05.479Z,98615.25
2022-10-16T14:20:35.669Z,98626.56
2022-10-16T14:23:20.073Z,98618.94
2022-10-16T14:25:48.039Z,98624.28
2022-10-16T14:28:22.805Z,98630.97
2022-10-16T14:30:59.870Z,98624.72
2022-10-16T14:33:30.741Z,98627.19
2022-10-16T14:36:15.369Z,98630.59
2022-10-16T14:38:58.333Z,98632.75
2022-10-16T14:41:26.216Z,98626.00
2022-10-16T14:44:05.382Z,98635.91
2022-10-16T14:46:41.347Z,98631.50
2022-10-16T14:49:11.454Z,98626.81
2022-10-16T14:51:45.680Z,98630.34
2022-10-16T14:54:16.337Z,98625.13
2022-10-16T14:56:55.567Z,98624.09
2022-10-16T14:59:39.563Z,98625.94
2022-10-16T15:02:21.949Z,98627.53
2022-10-16T15:04:50.339Z,98632.53
2022-10-16T15:07:17.889Z,98636.97
2022-10-16T15:09:49.053Z,98637.78
2022-10-16T15:12:18.151Z,98631.75
2022-10-16T15:14:45.651Z,98631.19
2022-10-16T15:17:13.946Z,98638.88
2022-10-16T15:19:42.962Z,98636.44
2022-10-16T15:22:12.947Z,98625.69
2022-10-16T15:24:40.579Z,98627.38
2022-10-16T15:27:07.778Z,98627.13
2022-10-16T15:29:35.196Z,98621.84
2022-10-16T15:32:02.382Z,98633.75
2022-10-16T15:34:29.753Z,98635.28
2022-10-16T15:36:58.868Z,98646.69
2022-10-16T15:39:26.451Z,98648.78
2022-10-16T15:41:54.343Z,98650.84
2022-10-16T15:44:30.603Z,98645.91
2022-10-16T15:46:57.999Z,98639.94
2022-10-16T15:49:25.494Z,98640.28
2022-10-16T15:51:54.143Z,98645.63
2022-10-16T15:54:23.783Z,98652.94
2022-10-16T15:56:50.975Z,98658.25
2022-10-16T15:59:18.395Z,98657.06
2022-10-16T16:01:46.243Z,98662.16
2022-10-16T16:04:32.022Z,98668.09
2022-10-16T16:07:02.293Z,98662.25
2022-10-16T16:09:32.564Z,98669.66
2022-10-16T16:12:01.880Z,98675.25
2022-10-16T16:14:29.528Z,98676.72
2022-10-16T16:16:57.355Z,98668.88
2022-10-16T16:19:25.212Z,98678.97
2022-10-16T16:21:52.475Z,98678.41
2022-10-16T16:24:20.431Z,98672.94
2022-10-16T16:26:47.709Z,98677.03
2022-10-16T16:29:16.846Z,98686.59
2022-10-16T16:31:44.340Z,98679.91
2022-10-16T16:34:11.813Z,98677.19
2022-10-16T16:36:39.884Z,98686.22
2022-10-16T16:39:08.854Z,98695.53
2022-10-16T16:41:36.167Z,98700.44
2022-10-16T16:44:08.492Z,98702.16
2022-10-16T16:46:36.293Z,98716.53
2022-10-16T16:49:04.580Z,98719.53
2022-10-16T16:51:33.748Z,98720.81
2022-10-16T16:54:03.036Z,98731.72
2022-10-16T16:56:30.169Z,98727.69
2022-10-16T16:58:58.610Z,98740.41
2022-10-16T17:01:28.315Z,98736.88
2022-10-16T17:03:58.192Z,98732.16
2022-10-16T17:06:30.621Z,98730.34
2022-10-16T17:08:58.945Z,98739.84
2022-10-16T17:11:28.149Z,98735.53
2022-10-16T17:13:58.386Z,98740.41
2022-10-16T17:16:33.897Z,98740.06
2022-10-16T17:19:08.897Z,98747.59
2022-10-16T17:21:37.311Z,98752.34
2022-10-16T17:24:06.064Z,98755.97
2022-10-16T17:26:38.295Z,98761.53
2022-10-16T17:29:06.094Z,98761.28
2022-10-16T17:31:37.361Z,98763.53
2022-10-16T17:34:09.170Z,98775.91
2022-10-16T17:36:39.413Z,98778.84
2022-10-16T17:39:09.219Z,98778.56
2022-10-16T17:41:37.656Z,98777.72
2022-10-16T17:44:06.854Z,98773.81
2022-10-16T17:46:38.294Z,98789.41
2022-10-16T17:49:09.799Z,98787.16
2022-10-16T17:51:37.194Z,98793.97
2022-10-16T17:54:04.999Z,98792.16
2022-10-16T17:56:32.337Z,98794.94
2022-10-16T17:59:02.165Z,98800.25
2022-10-16T18:01:36.983Z,98803.56
2022-10-16T18:04:13.146Z,98795.78
2022-10-16T18:06:43.932Z,98815.81
2022-10-16T18:09:15.975Z,98815.25
2022-10-16T18:11:43.181Z,98815.78
2022-10-16T18:14:14.818Z,98818.06
2022-10-16T18:16:42.474Z,98815.53
2022-10-16T18:19:13.228Z,98814.97
2022-10-16T18:21:41.347Z,98823.31
2022-10-16T18:24:10.208Z,98817.72
2022-10-16T18:26:38.609Z,98822.03
2022-10-16T18:29:06.285Z,98817.84
2022-10-16T18:31:34.482Z,98829.09
2022-10-16T18:34:04.110Z,98825.19
2022-10-16T18:36:34.454Z,98822.34
2022-10-16T18:39:10.813Z,98832.06
2022-10-16T18:41:44.917Z,98826.75
2022-10-16T18:44:13.410Z,98829.16
2022-10-16T18:46:41.335Z,98842.75
2022-10-16T18:49:09.125Z,98840.09
2022-10-16T18:51:40.856Z,98850.81
2022-10-16T18:54:12.234Z,98844.16
2022-10-16T18:56:40.469Z,98845.53
2022-10-16T18:59:09.687Z,98846.88
2022-10-16T19:01:40.975Z,98854.16
2022-10-16T19:04:12.847Z,98860.50
2022-10-16T19:06:46.152Z,98858.63
2022-10-16T19:09:15.651Z,98859.59
2022-10-16T19:11:43.881Z,98864.59
2022-10-16T19:14:13.809Z,98872.38
2022-10-16T19:16:43.092Z,98869.28
2022-10-16T19:19:18.439Z,98865.94
2022-10-16T19:21:47.873Z,98863.34
2022-10-16T19:24:16.977Z,98870.56
2022-10-16T19:26:44.833Z,98874.16
2022-10-16T19:29:12.516Z,98875.88
2022-10-16T19:31:40.952Z,98886.19
2022-10-16T19:34:10.766Z,98883.09
2022-10-16T19:36:40.031Z,98887.13
2022-10-16T19:39:14.023Z,98884.56
2022-10-16T19:41:41.792Z,98891.50
2022-10-16T19:44:13.383Z,98887.72
2022-10-16T19:46:41.063Z,98888.03
2022-10-16T19:49:13.344Z,98900.28
2022-10-16T19:51:40.872Z,98902.31
2022-10-16T19:54:13.298Z,98908.09
2022-10-16T19:56:41.647Z,98898.72
2022-10-16T19:59:13.164Z,98899.69
2022-10-16T20:01:40.605Z,98897.03
2022-10-16T20:04:08.190Z,98906.75
2022-10-16T20:06:35.483Z,98897.53
2022-10-16T20:09:03.041Z,98911.47
2022-10-16T20:11:33.485Z,98901.66
2022-10-16T20:14:02.051Z,98916.00
2022-10-16T20:16:30.959Z,98914.53
2022-10-16T20:18:59.257Z,98918.63
2022-10-16T20:21:30.727Z,98918.63
2022-10-16T20:24:01.003Z,98921.19
2022-10-16T20:26:28.465Z,98918.19
2022-10-16T20:28:56.451Z,98927.78
2022-10-16T20:31:30.159Z,98925.84
2022-10-16T20:34:02.126Z,98928.34
2022-10-16T20:36:30.768Z,98929.56
2022-10-16T20:38:58.679Z,98936.78
2022-10-16T20:41:25.976Z,98940.47
2022-10-16T20:43:55.990Z,98945.06
2022-10-16T20:46:26.727Z,98944.34
2022-10-16T20:49:02.330Z,98945.31
2022-10-16T20:51:38.415Z,98947.22
2022-10-16T20:54:07.495Z,98937.88
2022-10-16T20:56:37.247Z,98939.31
2022-10-16T20:59:05.951Z,98941.72
2022-10-16T21:01:35.691Z,98941.94
2022-10-16T21:04:07.121Z,98947.09
2022-10-16T21:06:38.712Z,98959.56
2022-10-16T21:09:07.712Z,98955.50
2022-10-16T21:11:37.430Z,98953.06
2022-10-16T21:14:09.021Z,98949.84
2022-10-16T21:16:36.824Z,98958.47
2022-10-16T21:19:05.602Z,98958.13
2022-10-16T21:21:37.990Z,98967.81
2022-10-16T21:24:09.905Z,98971.91
2022-10-16T21:26:39.574Z,98978.88
2022-10-16T21:29:07.948Z,98983.31
2022-10-16T21:31:36.143Z,98980.66
2022-10-16T21:34:04.431Z,98995.63
2022-10-16T21:36:39.435Z,98987.00
2022-10-16T21:39:19.534Z,98992.63
2022-10-16T21:41:50.176Z,99001.25
2022-10-16T21:44:20.153Z,99002.09
2022-10-16T21:46:47.839Z,99005.69
2022-10-16T21:49:19.443Z,99005.81
2022-10-16T21:51:50.286Z,99014.81
2022-10-16T21:54:22.494Z,99007.47
2022-10-16T21:56:50.379Z,99013.47
2022-10-16T21:59:18.236Z,99013.69
2022-10-16T22:01:45.515Z,99003.13
2022-10-16T22:04:16.743Z,99007.34
2022-10-16T22:06:44.339Z,99003.63
2022-10-16T22:09:14.375Z,99011.53
2022-10-16T22:11:44.625Z,99010.94
2022-10-16T22:14:17.663Z,99008.31
2022-10-16T22:16:46.074Z,99009.03
2022-10-16T22:19:16.385Z,99002.41
2022-10-16T22:21:47.851Z,99004.69
2022-10-16T22:24:16.637Z,99005.91
2022-10-16T22:26:45.425Z,99001.59
2022-10-16T22:29:14.713Z,98999.19
2022-10-16T22:31:43.286Z,98990.44
2022-10-16T22:34:14.387Z,99004.47
2022-10-16T22:36:41.753Z,98999.53
2022-10-16T22:39:10.539Z,99008.50
2022-10-16T22:41:38.018Z,99002.66
2022-10-16T22:44:05.539Z,99013.41
2022-10-16T22:46:32.794Z,99013.41
2022-10-16T22:49:00.288Z,99012.34
2022-10-16T22:51:28.253Z,99013.41
2022-10-16T22:53:59.261Z,99022.38
2022-10-16T22:56:26.964Z,99025.00
2022-10-16T22:58:54.528Z,99024.28
2022-10-16T23:01:29.781Z,99024.75
2022-10-16T23:03:57.625Z,99019.47
2022-10-16T23:06:25.071Z,99018.75
2022-10-16T23:08:58.844Z,99029.28
2022-10-16T23:11:28.371Z,99031.69
2022-10-16T23:13:56.421Z,99034.56
2022-10-16T23:16:24.123Z,99033.84
2022-10-16T23:18:52.168Z,99036.47
2022-10-16T23:21:25.299Z,99035.63
2022-10-16T23:23:54.531Z,99030.97
2022-10-16T23:26:25.291Z,99026.91
2022-10-16T23:28:54.998Z,99038.16
2022-10-16T23:31:22.299Z,99038.28
2022-10-16T23:33:49.646Z,99035.84
2022-10-16T23:36:21.276Z,99039.31
2022-10-16T23:38:50.157Z,99038.28
2022-10-16T23:41:19.797Z,99040.78
2022-10-16T23:43:47.965Z,99045.09
2022-10-16T23:46:15.994Z,99045.34
2022-10-16T23:48:44.279Z,99045.94
2022-10-16T23:51:12.266Z,99038.63
2022-10-16T23:53:40.052Z,99039.38
2022-10-16T23:56:07.714Z,99048.97
2022-10-16T23:58:35.999Z,99040.22
